createdAt,value
2017-05-25T00:01:41.588Z,4.00
2017-05-25T00:04:09.131Z,4.42
2017-05-25T00:06:36.784Z,6.06
2017-05-25T00:09:04.085Z,4.56
2017-05-25T00:11:31.406Z,4.50
2017-05-25T00:13:58.886Z,4.20
2017-05-25T00:16:26.117Z,4.96
2017-05-25T00:18:52.694Z,3.58
2017-05-25T00:21:20.080Z,4.50
2017-05-25T00:23:47.418Z,5.68
2017-05-25T00:26:14.786Z,4.40
2017-05-25T00:28:42.165Z,4.42
2017-05-25T00:31:09.488Z,4.96
2017-05-25T00:33:36.865Z,5.64
2017-05-25T00:36:04.113Z,4.58
2017-05-25T00:38:31.581Z,4.88
2017-05-25T00:40:59.064Z,4.46
2017-05-25T00:43:26.449Z,4.18
2017-05-25T00:45:53.809Z,4.86
2017-05-25T00:48:21.113Z,4.52
2017-05-25T00:50:48.484Z,6.92
2017-05-25T00:53:15.820Z,4.84
2017-05-25T00:55:43.206Z,4.50
2017-05-25T00:58:10.468Z,4.86
2017-05-25T01:00:37.855Z,4.98
2017-05-25T01:03:05.317Z,4.28
2017-05-25T01:05:32.713Z,5.42
2017-05-25T01:08:00.082Z,8.42
2017-05-25T01:10:28.659Z,6.44
2017-05-25T01:12:55.997Z,5.42
2017-05-25T01:15:23.538Z,7.12
2017-05-25T01:17:50.988Z,6.86
2017-05-25T01:20:18.381Z,5.68
2017-05-25T01:22:45.664Z,9.18
2017-05-25T01:25:13.021Z,6.03
2017-05-25T01:27:40.863Z,7.36
2017-05-25T01:30:08.231Z,5.86
2017-05-25T01:32:35.527Z,7.98
2017-05-25T01:35:04.308Z,7.14
2017-05-25T01:37:31.680Z,5.78
2017-05-25T01:39:59.054Z,5.10
2017-05-25T01:42:26.543Z,7.32
2017-05-25T01:44:53.893Z,7.25
2017-05-25T01:47:21.112Z,6.02
2017-05-25T01:49:48.441Z,6.00
2017-05-25T01:52:15.792Z,5.20
2017-05-25T01:54:43.138Z,5.98
2017-05-25T01:57:10.475Z,5.58
2017-05-25T01:59:37.885Z,6.22
2017-05-25T02:02:06.077Z,5.97
2017-05-25T02:04:33.432Z,5.45
2017-05-25T02:07:00.776Z,6.42
2017-05-25T02:09:28.103Z,6.92
2017-05-25T02:11:55.453Z,7.97
2017-05-25T02:14:22.947Z,6.22
2017-05-25T02:16:50.277Z,8.82
2017-05-25T02:19:17.618Z,10.18
2017-05-25T02:21:44.947Z,9.70
2017-05-25T02:24:12.224Z,7.62
2017-05-25T02:26:39.574Z,7.80
2017-05-25T02:29:06.916Z,10.40
2017-05-25T02:31:34.245Z,7.42
2017-05-25T02:34:01.631Z,9.12
2017-05-25T02:36:29.019Z,9.40
2017-05-25T02:38:56.355Z,10.35
2017-05-25T02:41:23.595Z,9.72
2017-05-25T02:43:50.936Z,11.17
2017-05-25T02:46:18.317Z,11.55
2017-05-25T02:48:45.692Z,13.78
2017-05-25T02:51:13.341Z,12.53
2017-05-25T02:53:40.649Z,13.58
2017-05-25T02:56:07.921Z,11.45
2017-05-25T02:58:35.273Z,13.26
2017-05-25T03:01:02.604Z,12.06
2017-05-25T03:03:30.409Z,12.08
2017-05-25T03:05:57.737Z,11.62
2017-05-25T03:08:25.077Z,12.22
2017-05-25T03:10:52.418Z,12.12
2017-05-25T03:13:19.783Z,11.68
2017-05-25T03:15:47.132Z,12.96
2017-05-25T03:18:14.465Z,12.28
2017-05-25T03:20:41.708Z,13.48
2017-05-25T03:23:08.954Z,12.70
2017-05-25T03:25:36.188Z,12.04
2017-05-25T03:28:03.504Z,13.32
2017-05-25T03:30:30.852Z,11.30
2017-05-25T03:32:58.187Z,11.98
2017-05-25T03:35:25.397Z,13.40
2017-05-25T03:37:52.712Z,10.62
2017-05-25T03:40:20.217Z,12.55
2017-05-25T03:42:47.419Z,10.92
2017-05-25T03:45:14.761Z,13.86
2017-05-25T03:47:42.093Z,11.86
2017-05-25T03:50:09.489Z,12.90
2017-05-25T03:52:36.825Z,11.70
2017-05-25T03:55:04.137Z,10.70
2017-05-25T03:57:31.516Z,12.02
2017-05-25T03:59:58.809Z,11.80
2017-05-25T04:02:26.061Z,12.54
2017-05-25T04:04:53.413Z,12.52
2017-05-25T04:07:20.756Z,12.47
2017-05-25T04:09:48.072Z,10.82
2017-05-25T04:12:15.418Z,10.44
2017-05-25T04:14:42.763Z,11.90
2017-05-25T04:17:10.081Z,12.14
2017-05-25T04:19:37.318Z,11.04
2017-05-25T04:22:04.558Z,14.10
2017-05-25T04:24:32.106Z,10.88
2017-05-25T04:26:59.336Z,10.68
2017-05-25T04:29:25.927Z,11.22
2017-05-25T04:31:53.101Z,12.58
2017-05-25T04:34:21.084Z,14.64
2017-05-25T04:36:48.396Z,11.54
2017-05-25T04:39:15.738Z,13.02
2017-05-25T04:41:43.289Z,11.56
2017-05-25T04:44:10.635Z,13.58
2017-05-25T04:46:37.956Z,13.30
2017-05-25T04:49:05.665Z,11.18
2017-05-25T04:51:33.035Z,11.46
2017-05-25T04:54:00.394Z,14.58
2017-05-25T04:56:27.740Z,14.10
2017-05-25T04:58:54.305Z,14.42
2017-05-25T05:01:22.909Z,14.30
2017-05-25T05:03:50.169Z,14.24
2017-05-25T05:06:17.564Z,13.10
2017-05-25T05:08:44.982Z,14.94
2017-05-25T05:11:12.382Z,15.06
2017-05-25T05:13:41.434Z,15.22
2017-05-25T05:16:12.952Z,13.88
2017-05-25T05:18:41.450Z,15.50
2017-05-25T05:21:08.786Z,15.38
2017-05-25T05:23:36.242Z,16.32
2017-05-25T05:26:03.465Z,13.56
2017-05-25T05:28:30.806Z,13.36
2017-05-25T05:30:58.356Z,12.62
2017-05-25T05:33:25.773Z,14.96
2017-05-25T05:35:53.016Z,16.02
2017-05-25T05:38:20.471Z,16.00
2017-05-25T05:40:47.309Z,17.42
2017-05-25T05:43:14.609Z,12.06
2017-05-25T05:45:41.881Z,14.06
2017-05-25T05:48:09.268Z,13.66
2017-05-25T05:50:36.665Z,14.48
2017-05-25T05:53:04.000Z,12.32
2017-05-25T05:55:31.341Z,11.68
2017-05-25T05:57:58.705Z,12.70
2017-05-25T06:00:26.108Z,12.58
2017-05-25T06:02:53.463Z,15.04
2017-05-25T06:05:20.859Z,14.06
2017-05-25T06:07:48.181Z,13.80
2017-05-25T06:10:15.491Z,18.32
2017-05-25T06:12:43.159Z,13.36
2017-05-25T06:15:10.644Z,12.38
2017-05-25T06:17:37.898Z,12.80
2017-05-25T06:20:05.239Z,17.36
2017-05-25T06:22:32.569Z,16.86
2017-05-25T06:24:59.854Z,12.76
2017-05-25T06:27:27.697Z,11.66
2017-05-25T06:29:55.080Z,11.04
2017-05-25T06:32:22.284Z,12.44
2017-05-25T06:34:49.620Z,12.08
2017-05-25T06:37:17.416Z,10.00
2017-05-25T06:39:44.731Z,10.00
2017-05-25T06:42:12.033Z,12.40
2017-05-25T06:44:39.747Z,12.20
2017-05-25T06:47:13.911Z,14.10
2017-05-25T06:49:41.351Z,11.76
2017-05-25T06:52:08.900Z,10.96
2017-05-25T06:54:36.274Z,13.80
2017-05-25T06:57:03.749Z,11.66
2017-05-25T06:59:31.102Z,12.48
2017-05-25T07:01:58.501Z,9.82
2017-05-25T07:04:25.870Z,12.22
2017-05-25T07:06:53.201Z,12.66
2017-05-25T07:09:20.481Z,9.88
2017-05-25T07:11:48.703Z,11.48
2017-05-25T07:14:17.884Z,10.68
2017-05-25T07:16:47.127Z,11.64
2017-05-25T07:19:14.477Z,12.28
2017-05-25T07:21:41.832Z,10.30
2017-05-25T07:24:09.278Z,12.48
2017-05-25T07:26:36.603Z,13.58
2017-05-25T07:29:03.936Z,13.72
2017-05-25T07:31:31.274Z,13.10
2017-05-25T07:33:58.581Z,11.24
2017-05-25T07:36:25.916Z,11.66
2017-05-25T07:38:53.289Z,10.56
2017-05-25T07:41:20.632Z,11.22
2017-05-25T07:43:47.854Z,10.80
2017-05-25T07:46:15.246Z,10.12
2017-05-25T07:48:43.305Z,10.28
2017-05-25T07:51:10.740Z,10.28
2017-05-25T07:53:38.169Z,10.58
2017-05-25T07:56:05.533Z,10.08
2017-05-25T07:58:32.886Z,11.34
2017-05-25T08:00:59.452Z,13.22
2017-05-25T08:03:26.824Z,11.36
2017-05-25T08:05:54.164Z,9.56
2017-05-25T08:08:21.605Z,10.62
2017-05-25T08:10:49.470Z,10.66
2017-05-25T08:13:16.793Z,9.26
2017-05-25T08:15:44.116Z,8.94
2017-05-25T08:18:11.467Z,8.48
2017-05-25T08:20:39.059Z,7.64
2017-05-25T08:23:06.507Z,7.84
2017-05-25T08:25:33.893Z,7.18
2017-05-25T08:28:01.136Z,7.08
2017-05-25T08:30:28.384Z,7.98
2017-05-25T08:32:56.743Z,6.28
2017-05-25T08:35:24.120Z,7.18
2017-05-25T08:37:51.458Z,6.72
2017-05-25T08:40:18.898Z,8.46
2017-05-25T08:42:46.241Z,7.34
2017-05-25T08:45:13.594Z,8.20
2017-05-25T08:47:41.046Z,7.54
2017-05-25T08:50:08.469Z,7.34
2017-05-25T08:52:35.870Z,8.34
2017-05-25T08:55:03.212Z,7.28
2017-05-25T08:57:30.697Z,8.24
2017-05-25T08:59:57.957Z,11.36
2017-05-25T09:02:25.339Z,9.22
2017-05-25T09:04:52.665Z,8.70
2017-05-25T09:07:19.912Z,8.86
2017-05-25T09:09:47.247Z,10.76
2017-05-25T09:12:14.581Z,9.12
2017-05-25T09:14:41.940Z,8.92
2017-05-25T09:17:08.521Z,8.74
2017-05-25T09:19:35.884Z,7.96
2017-05-25T09:22:09.450Z,8.74
2017-05-25T09:24:37.857Z,9.12
2017-05-25T09:27:05.219Z,8.80
2017-05-25T09:29:32.778Z,8.46
2017-05-25T09:32:00.059Z,8.06
2017-05-25T09:34:27.421Z,8.50
2017-05-25T09:36:54.805Z,9.08
2017-05-25T09:39:22.141Z,8.56
2017-05-25T09:41:49.545Z,8.56
2017-05-25T09:44:16.859Z,10.30
2017-05-25T09:46:44.117Z,9.00
2017-05-25T09:49:11.446Z,10.20
2017-05-25T09:51:38.737Z,8.38
2017-05-25T09:54:06.132Z,7.52
2017-05-25T09:56:33.308Z,8.18
2017-05-25T09:59:00.613Z,8.62
2017-05-25T10:01:27.974Z,9.34
2017-05-25T10:03:55.308Z,9.62
2017-05-25T10:06:23.064Z,11.22
2017-05-25T10:08:50.497Z,9.98
2017-05-25T10:11:17.815Z,10.06
2017-05-25T10:13:45.128Z,8.78
2017-05-25T10:16:13.434Z,9.96
2017-05-25T10:18:41.868Z,10.04
2017-05-25T10:21:12.857Z,10.36
2017-05-25T10:23:40.162Z,9.80
2017-05-25T10:26:07.756Z,11.60
2017-05-25T10:28:35.053Z,11.98
2017-05-25T10:31:02.361Z,10.40
2017-05-25T10:33:29.656Z,9.08
2017-05-25T10:35:56.961Z,9.36
2017-05-25T10:38:24.484Z,8.82
2017-05-25T10:40:51.813Z,12.26
2017-05-25T10:43:19.113Z,8.72
2017-05-25T10:45:46.457Z,7.76
2017-05-25T10:48:13.946Z,10.18
2017-05-25T10:50:41.251Z,9.12
2017-05-25T10:53:08.541Z,12.46
2017-05-25T10:55:35.876Z,7.80
2017-05-25T10:58:03.118Z,8.38
2017-05-25T11:00:30.863Z,7.86
2017-05-25T11:02:57.501Z,7.62
2017-05-25T11:05:25.362Z,8.26
2017-05-25T11:07:52.826Z,9.02
2017-05-25T11:10:20.221Z,7.38
2017-05-25T11:12:46.821Z,8.04
2017-05-25T11:15:14.573Z,10.32
2017-05-25T11:17:43.597Z,7.72
2017-05-25T11:20:10.180Z,8.88
2017-05-25T11:22:37.561Z,8.72
2017-05-25T11:25:04.915Z,10.74
2017-05-25T11:27:32.245Z,7.74
2017-05-25T11:29:59.649Z,7.54
2017-05-25T11:32:26.097Z,9.72
2017-05-25T11:34:53.437Z,9.42
2017-05-25T11:37:20.774Z,8.74
2017-05-25T11:39:48.089Z,8.16
2017-05-25T11:42:15.399Z,8.24
2017-05-25T11:44:42.639Z,8.64
2017-05-25T11:47:09.940Z,7.54
2017-05-25T11:49:37.277Z,7.94
2017-05-25T11:52:04.660Z,8.28
2017-05-25T11:54:31.982Z,11.14
2017-05-25T11:56:59.325Z,8.80
2017-05-25T11:59:26.647Z,8.90
2017-05-25T12:01:53.968Z,10.24
2017-05-25T12:04:21.265Z,7.04
2017-05-25T12:06:48.497Z,7.24
2017-05-25T12:09:15.829Z,9.40
2017-05-25T12:11:43.146Z,6.70
2017-05-25T12:14:10.545Z,7.26
2017-05-25T12:16:37.860Z,8.72
2017-05-25T12:19:04.477Z,6.74
2017-05-25T12:21:31.820Z,8.14
2017-05-25T12:23:59.192Z,4.82
2017-05-25T12:26:26.576Z,6.78
2017-05-25T12:31:39.541Z,8.22
2017-05-25T12:34:06.608Z,7.28
2017-05-25T12:36:32.946Z,5.38
2017-05-25T12:39:00.013Z,5.36
2017-05-25T12:41:29.532Z,5.94
2017-05-25T12:43:56.700Z,5.44
2017-05-25T12:46:24.208Z,5.32
2017-05-25T12:48:51.399Z,5.38
2017-05-25T12:51:18.696Z,5.48
2017-05-25T12:53:45.860Z,5.96
2017-05-25T12:56:13.103Z,5.90
2017-05-25T12:58:40.990Z,4.90
2017-05-25T13:01:08.141Z,5.32
2017-05-25T13:03:35.287Z,4.94
2017-05-25T13:06:02.784Z,4.98
2017-05-25T13:08:30.189Z,4.42
2017-05-25T13:10:57.462Z,5.34
2017-05-25T13:13:24.772Z,4.86
2017-05-25T13:15:52.109Z,5.32
2017-05-25T13:18:18.705Z,3.16
2017-05-25T13:20:46.014Z,4.60
2017-05-25T13:23:13.425Z,4.94
2017-05-25T13:25:40.757Z,3.80
2017-05-25T13:28:08.097Z,4.62
2017-05-25T13:30:34.771Z,5.50
2017-05-25T13:33:02.124Z,5.04
2017-05-25T13:35:30.366Z,4.22
2017-05-25T13:37:57.704Z,4.40
2017-05-25T13:40:24.985Z,4.04
2017-05-25T13:42:52.317Z,4.56
2017-05-25T13:45:19.601Z,7.30
2017-05-25T13:47:46.980Z,4.50
2017-05-25T13:50:14.272Z,5.22
2017-05-25T13:52:41.544Z,5.74
2017-05-25T13:55:08.845Z,4.92
2017-05-25T13:57:36.257Z,5.80
2017-05-25T14:00:03.564Z,5.18
2017-05-25T14:02:30.898Z,4.50
2017-05-25T14:04:58.194Z,4.74
2017-05-25T14:07:25.496Z,4.76
2017-05-25T14:09:52.944Z,4.98
2017-05-25T14:12:20.149Z,5.64
2017-05-25T14:14:47.420Z,4.84
2017-05-25T14:17:14.730Z,5.50
2017-05-25T14:19:42.021Z,4.64
2017-05-25T14:22:09.201Z,4.66
2017-05-25T14:24:36.514Z,6.14
2017-05-25T14:27:03.849Z,5.04
2017-05-25T14:29:31.149Z,4.34
2017-05-25T14:31:58.713Z,5.00
2017-05-25T14:34:25.996Z,4.98
2017-05-25T14:36:53.293Z,5.18
2017-05-25T14:39:20.635Z,4.22
2017-05-25T14:41:47.933Z,4.30
2017-05-25T14:44:15.249Z,5.34
2017-05-25T14:46:42.489Z,6.18
2017-05-25T14:49:09.821Z,5.36
2017-05-25T14:51:37.140Z,6.28
2017-05-25T14:54:04.498Z,5.96
2017-05-25T14:56:31.680Z,7.68
2017-05-25T14:58:58.972Z,4.90
2017-05-25T15:01:25.832Z,4.66
2017-05-25T15:03:53.087Z,4.68
2017-05-25T15:06:21.132Z,5.00
2017-05-25T15:08:48.442Z,5.64
2017-05-25T15:11:16.652Z,5.04
2017-05-25T15:13:44.031Z,4.32
2017-05-25T15:16:11.406Z,5.34
2017-05-25T15:18:38.760Z,3.78
2017-05-25T15:21:12.977Z,4.04
2017-05-25T15:23:40.037Z,4.00
2017-05-25T15:26:07.108Z,4.70
2017-05-25T15:28:34.492Z,15.70
2017-05-25T15:31:01.576Z,4.48
2017-05-25T15:33:29.390Z,4.56
2017-05-25T15:35:56.556Z,7.30
2017-05-25T15:38:24.045Z,10.42
2017-05-25T15:40:51.254Z,4.34
2017-05-25T15:43:18.548Z,5.08
2017-05-25T15:45:45.905Z,4.46
2017-05-25T15:48:13.216Z,5.92
2017-05-25T15:50:39.800Z,5.28
2017-05-25T15:53:07.118Z,5.48
2017-05-25T15:55:34.444Z,4.88
2017-05-25T15:58:01.936Z,4.46
2017-05-25T16:00:29.580Z,5.66
2017-05-25T16:02:56.778Z,4.38
2017-05-25T16:05:25.393Z,4.98
2017-05-25T16:07:52.788Z,5.06
2017-05-25T16:10:20.088Z,4.92
2017-05-25T16:12:47.445Z,6.86
2017-05-25T16:15:14.742Z,5.96
2017-05-25T16:17:42.081Z,7.14
2017-05-25T16:20:09.387Z,4.46
2017-05-25T16:22:36.696Z,4.88
2017-05-25T16:25:04.050Z,6.56
2017-05-25T16:27:31.339Z,9.42
2017-05-25T16:29:57.925Z,4.94
2017-05-25T16:32:25.502Z,6.06
2017-05-25T16:34:52.852Z,5.20
2017-05-25T16:37:20.146Z,6.40
2017-05-25T16:39:47.552Z,6.94
2017-05-25T16:42:14.749Z,7.04
2017-05-25T16:44:42.592Z,7.12
2017-05-25T16:47:09.993Z,5.68
2017-05-25T16:49:37.605Z,4.48
2017-05-25T16:52:05.852Z,5.78
2017-05-25T16:54:33.377Z,3.82
2017-05-25T16:56:59.993Z,5.26
2017-05-25T16:59:27.305Z,4.66
2017-05-25T17:01:54.808Z,8.04
2017-05-25T17:04:22.278Z,4.46
2017-05-25T17:06:49.865Z,6.54
2017-05-25T17:09:17.835Z,5.10
2017-05-25T17:11:45.223Z,5.34
2017-05-25T17:14:12.536Z,5.44
2017-05-25T17:16:39.880Z,4.46
2017-05-25T17:19:07.215Z,6.22
2017-05-25T17:21:34.519Z,4.54
2017-05-25T17:24:01.894Z,4.58
2017-05-25T17:26:29.191Z,4.78
2017-05-25T17:28:56.498Z,5.74
2017-05-25T17:31:23.875Z,4.06
2017-05-25T17:33:51.082Z,6.50
2017-05-25T17:36:18.404Z,3.82
2017-05-25T17:38:45.610Z,4.64
2017-05-25T17:41:12.845Z,6.02
2017-05-25T17:43:40.164Z,5.44
2017-05-25T17:46:07.496Z,4.00
2017-05-25T17:48:34.779Z,4.40
2017-05-25T17:51:02.100Z,4.42
2017-05-25T17:53:29.445Z,7.20
2017-05-25T17:55:56.637Z,4.98
2017-05-25T17:58:24.154Z,4.88
2017-05-25T18:00:51.466Z,3.80
2017-05-25T18:03:18.793Z,7.58
2017-05-25T18:05:46.043Z,4.24
2017-05-25T18:08:13.369Z,4.60
2017-05-25T18:10:41.124Z,7.84
2017-05-25T18:13:08.433Z,5.94
2017-05-25T18:15:35.768Z,5.16
2017-05-25T18:18:03.104Z,4.04
2017-05-25T18:20:29.664Z,4.12
2017-05-25T18:22:56.966Z,20.94
2017-05-25T18:25:24.577Z,3.52
2017-05-25T18:27:52.402Z,5.40
2017-05-25T18:30:19.692Z,5.90
2017-05-25T18:32:47.069Z,3.46
2017-05-25T18:35:14.772Z,4.68
2017-05-25T18:37:42.329Z,3.34
2017-05-25T18:40:09.670Z,3.62
2017-05-25T18:42:36.984Z,4.08
2017-05-25T18:45:04.216Z,4.62
2017-05-25T18:47:31.516Z,4.80
2017-05-25T18:49:58.844Z,3.70
2017-05-25T18:52:32.916Z,3.80
2017-05-25T18:55:00.216Z,3.88
2017-05-25T18:57:26.804Z,3.64
2017-05-25T18:59:56.680Z,4.74
2017-05-25T19:02:30.881Z,4.28
2017-05-25T19:04:58.349Z,3.92
2017-05-25T19:07:26.233Z,6.02
2017-05-25T19:09:54.989Z,5.30
2017-05-25T19:12:22.437Z,4.92
2017-05-25T19:14:49.656Z,3.80
2017-05-25T19:17:17.017Z,4.50
2017-05-25T19:19:44.213Z,3.88
2017-05-25T19:22:11.389Z,2.68
2017-05-25T19:24:39.232Z,3.96
2017-05-25T19:27:07.290Z,3.80
2017-05-25T19:29:34.805Z,5.10
2017-05-25T19:32:01.527Z,3.70
2017-05-25T19:34:33.790Z,4.78
2017-05-25T19:37:01.783Z,4.50
2017-05-25T19:39:29.103Z,3.82
2017-05-25T19:41:56.325Z,5.50
2017-05-25T19:44:23.653Z,5.74
2017-05-25T19:46:50.998Z,4.44
2017-05-25T19:49:18.373Z,3.68
2017-05-25T19:51:45.696Z,4.64
2017-05-25T19:54:13.161Z,3.58
2017-05-25T19:56:40.520Z,7.74
2017-05-25T19:59:07.861Z,11.90
2017-05-25T20:01:35.236Z,10.88
2017-05-25T20:04:02.572Z,7.10
2017-05-25T20:06:30.032Z,6.32
2017-05-25T20:08:57.231Z,4.38
2017-05-25T20:11:23.958Z,5.90
2017-05-25T20:13:51.339Z,6.10
2017-05-25T20:16:18.641Z,4.84
2017-05-25T20:18:45.977Z,6.46
2017-05-25T20:21:13.333Z,6.26
2017-05-25T20:23:40.690Z,5.72
2017-05-25T20:26:08.244Z,6.94
2017-05-25T20:28:35.576Z,7.78
2017-05-25T20:31:02.958Z,9.38
2017-05-25T20:33:30.258Z,6.88
2017-05-25T20:35:57.625Z,7.52
2017-05-25T20:38:25.276Z,7.48
2017-05-25T20:40:52.668Z,7.14
2017-05-25T20:43:19.321Z,6.92
2017-05-25T20:45:46.604Z,6.86
2017-05-25T20:48:13.902Z,6.32
2017-05-25T20:50:41.262Z,6.02
2017-05-25T20:53:08.514Z,5.52
2017-05-25T20:55:35.737Z,6.88
2017-05-25T20:58:03.061Z,4.22
2017-05-25T21:00:30.361Z,7.16
2017-05-25T21:02:57.745Z,5.96
2017-05-25T21:05:25.305Z,5.04
2017-05-25T21:07:52.990Z,3.98
2017-05-25T21:10:20.412Z,4.56
2017-05-25T21:12:47.728Z,6.04
2017-05-25T21:15:15.041Z,4.38
2017-05-25T21:17:41.625Z,5.00
2017-05-25T21:20:08.834Z,3.90
2017-05-25T21:22:36.148Z,4.82
2017-05-25T21:25:03.494Z,4.98
2017-05-25T21:27:30.784Z,3.82
2017-05-25T21:29:58.109Z,4.40
2017-05-25T21:32:25.461Z,6.12
2017-05-25T21:34:52.765Z,4.26
2017-05-25T21:37:20.108Z,4.28
2017-05-25T21:39:47.449Z,7.00
2017-05-25T21:42:14.753Z,4.14
2017-05-25T21:44:42.053Z,5.44
2017-05-25T21:47:09.361Z,5.34
2017-05-25T21:49:36.665Z,4.30
2017-05-25T21:52:03.989Z,4.02
2017-05-25T21:54:31.305Z,8.38
2017-05-25T21:56:58.724Z,3.98
2017-05-25T21:59:26.040Z,5.26
2017-05-25T22:01:52.526Z,4.54
2017-05-25T22:04:19.848Z,4.50
2017-05-25T22:06:46.428Z,8.96
2017-05-25T22:09:13.742Z,14.96
2017-05-25T22:11:41.071Z,3.78
2017-05-25T22:14:08.238Z,4.04
2017-05-25T22:16:35.420Z,5.14
2017-05-25T22:19:02.776Z,4.94
2017-05-25T22:21:30.092Z,4.60
2017-05-25T22:23:57.440Z,5.32
2017-05-25T22:26:24.786Z,4.22
2017-05-25T22:28:52.096Z,4.08
2017-05-25T22:31:19.449Z,4.98
2017-05-25T22:33:46.770Z,6.56
2017-05-25T22:36:14.080Z,4.12
2017-05-25T22:38:41.388Z,4.66
2017-05-25T22:41:08.726Z,5.66
2017-05-25T22:43:36.041Z,5.28
2017-05-25T22:46:03.344Z,4.40
2017-05-25T22:48:30.644Z,5.54
2017-05-25T22:50:57.960Z,4.64
2017-05-25T22:53:25.658Z,4.96
2017-05-25T22:55:52.864Z,5.62
2017-05-25T22:58:20.164Z,4.84
2017-05-25T23:00:47.469Z,4.50
2017-05-25T23:03:17.550Z,4.88
2017-05-25T23:05:44.945Z,6.36
2017-05-25T23:08:11.532Z,5.12
2017-05-25T23:10:38.868Z,7.78
2017-05-25T23:13:06.107Z,6.14
2017-05-25T23:15:33.412Z,6.58
2017-05-25T23:18:02.097Z,5.34
2017-05-25T23:20:29.940Z,6.36
2017-05-25T23:22:58.296Z,5.48
2017-05-25T23:25:27.038Z,5.22
2017-05-25T23:27:54.406Z,6.54
2017-05-25T23:30:22.121Z,8.68
2017-05-25T23:32:48.857Z,6.98
2017-05-25T23:35:16.170Z,6.04
2017-05-25T23:37:43.717Z,6.54
2017-05-25T23:40:11.202Z,8.08
2017-05-25T23:42:38.877Z,7.14
2017-05-25T23:45:07.041Z,6.52
2017-05-25T23:47:34.437Z,6.94
2017-05-25T23:50:01.882Z,7.76
2017-05-25T23:52:29.451Z,6.46
2017-05-25T23:55:03.913Z,9.02
2017-05-25T23:57:31.301Z,8.84
2017-05-25T23:59:58.734Z,6.10
